createdAt,value
2022-08-25T00:00:11.255Z,18.50
2022-08-25T00:01:11.204Z,18.73
2022-08-25T00:02:11.219Z,18.97
2022-08-25T00:03:11.241Z,19.31
2022-08-25T00:04:11.165Z,19.55
2022-08-25T00:05:11.179Z,19.65
2022-08-25T00:06:11.134Z,19.93
2022-08-25T00:07:11.085Z,19.94
2022-08-25T00:08:11.071Z,20.20
2022-08-25T00:09:11.052Z,20.12
2022-08-25T00:10:11.036Z,20.21
2022-08-25T00:11:11.018Z,20.24
2022-08-25T00:12:10.998Z,20.30
2022-08-25T00:13:10.979Z,20.54
2022-08-25T00:14:11.004Z,20.49
2022-08-25T00:15:10.942Z,20.64
2022-08-25T00:16:10.986Z,20.84
2022-08-25T00:17:10.917Z,20.87
2022-08-25T00:18:19.463Z,20.93
2022-08-25T00:19:10.865Z,20.95
2022-08-25T00:20:10.850Z,20.96
2022-08-25T00:21:10.848Z,21.06
2022-08-25T00:22:10.816Z,21.11
2022-08-25T00:23:10.806Z,20.90
2022-08-25T00:24:10.778Z,20.93
2022-08-25T00:25:10.765Z,20.96
2022-08-25T00:26:10.763Z,20.95
2022-08-25T00:27:10.727Z,20.91
2022-08-25T00:28:10.999Z,20.93
2022-08-25T00:29:10.695Z,21.04
2022-08-25T00:30:10.682Z,20.96
2022-08-25T00:31:10.718Z,21.01
2022-08-25T00:32:10.644Z,20.98
2022-08-25T00:33:10.635Z,21.06
2022-08-25T00:34:10.606Z,21.05
2022-08-25T00:35:10.584Z,20.86
2022-08-25T00:36:10.573Z,20.87
2022-08-25T00:37:10.556Z,21.02
2022-08-25T00:38:10.540Z,20.96
2022-08-25T00:39:10.517Z,21.09
2022-08-25T00:40:10.568Z,21.02
2022-08-25T00:41:10.480Z,21.06
2022-08-25T00:42:11.904Z,21.01
2022-08-25T00:43:10.448Z,21.13
2022-08-25T00:44:10.446Z,21.08
2022-08-25T00:45:10.430Z,21.20
2022-08-25T00:46:10.444Z,21.26
2022-08-25T00:47:10.379Z,21.21
2022-08-25T00:48:10.387Z,21.24
2022-08-25T00:49:11.701Z,21.21
2022-08-25T00:50:10.339Z,21.26
2022-08-25T00:51:10.318Z,21.29
2022-08-25T00:52:10.296Z,21.21
2022-08-25T00:53:10.278Z,21.16
2022-08-25T00:54:10.264Z,21.32
2022-08-25T00:55:10.244Z,21.23
2022-08-25T00:56:10.230Z,21.29
2022-08-25T00:57:10.218Z,21.34
2022-08-25T00:58:10.204Z,21.19
2022-08-25T00:59:10.177Z,21.27
2022-08-25T01:00:10.163Z,21.29
2022-08-25T01:01:10.165Z,21.24
2022-08-25T01:02:13.557Z,21.41
2022-08-25T01:03:10.112Z,21.35
2022-08-25T01:04:10.090Z,21.39
2022-08-25T01:05:10.088Z,21.36
2022-08-25T01:06:10.058Z,21.35
2022-08-25T01:07:11.230Z,21.41
2022-08-25T01:08:10.177Z,21.48
2022-08-25T01:09:10.006Z,21.38
2022-08-25T01:10:09.992Z,21.26
2022-08-25T01:11:09.982Z,21.32
2022-08-25T01:12:09.954Z,21.36
2022-08-25T01:13:10.338Z,21.35
2022-08-25T01:14:09.929Z,21.27
2022-08-25T01:15:09.912Z,21.08
2022-08-25T01:16:10.086Z,20.98
2022-08-25T01:17:09.874Z,20.93
2022-08-25T01:18:09.857Z,20.83
2022-08-25T01:19:09.842Z,20.87
2022-08-25T01:20:09.824Z,20.89
2022-08-25T01:21:09.809Z,20.87
2022-08-25T01:22:09.787Z,20.84
2022-08-25T01:23:09.770Z,20.76
2022-08-25T01:24:09.753Z,20.69
2022-08-25T01:25:09.738Z,20.69
2022-08-25T01:26:09.727Z,20.72
2022-08-25T01:27:09.703Z,20.69
2022-08-25T01:28:09.684Z,20.69
2022-08-25T01:29:09.671Z,20.65
2022-08-25T01:30:09.658Z,20.64
2022-08-25T01:31:24.053Z,20.56
2022-08-25T01:32:09.623Z,20.54
2022-08-25T01:33:09.614Z,20.66
2022-08-25T01:34:09.590Z,20.71
2022-08-25T01:35:09.581Z,20.83
2022-08-25T01:36:09.552Z,20.87
2022-08-25T01:37:09.538Z,20.91
2022-08-25T01:38:09.515Z,20.86
2022-08-25T01:39:09.508Z,20.86
2022-08-25T01:40:09.543Z,20.90
2022-08-25T01:41:09.462Z,20.93
2022-08-25T01:42:09.459Z,20.84
2022-08-25T01:43:09.450Z,20.89
2022-08-25T01:44:10.905Z,20.84
2022-08-25T01:45:09.403Z,20.81
2022-08-25T01:46:09.468Z,20.72
2022-08-25T01:47:09.366Z,20.69
2022-08-25T01:48:09.348Z,20.46
2022-08-25T01:49:09.325Z,20.25
2022-08-25T01:50:09.313Z,20.18
2022-08-25T01:51:09.295Z,19.94
2022-08-25T01:52:09.284Z,19.95
2022-08-25T01:53:09.264Z,19.78
2022-08-25T01:54:09.251Z,19.73
2022-08-25T01:55:09.228Z,19.53
2022-08-25T01:56:09.699Z,19.36
2022-08-25T01:57:09.192Z,19.38
2022-08-25T01:58:09.201Z,19.21
2022-08-25T01:59:09.159Z,19.13
2022-08-25T02:00:09.161Z,19.08
2022-08-25T02:01:09.149Z,18.98
2022-08-25T02:02:09.173Z,18.92
2022-08-25T02:03:15.728Z,18.79
2022-08-25T02:04:09.079Z,18.70
2022-08-25T02:05:09.054Z,18.55
2022-08-25T02:06:09.034Z,18.64
2022-08-25T02:07:09.041Z,18.47
2022-08-25T02:08:08.998Z,18.43
2022-08-25T02:09:08.988Z,18.36
2022-08-25T02:10:08.975Z,18.40
2022-08-25T02:11:08.948Z,18.25
2022-08-25T02:12:08.923Z,18.24
2022-08-25T02:13:08.923Z,18.15
2022-08-25T02:14:08.931Z,18.03
2022-08-25T02:15:08.879Z,18.03
2022-08-25T02:16:08.859Z,17.88
2022-08-25T02:17:08.853Z,17.91
2022-08-25T02:18:08.832Z,17.78
2022-08-25T02:19:08.838Z,17.78
2022-08-25T02:20:08.802Z,17.70
2022-08-25T02:21:08.785Z,17.59
2022-08-25T02:22:08.749Z,17.63
2022-08-25T02:23:08.742Z,17.70
2022-08-25T02:24:08.715Z,17.51
2022-08-25T02:25:08.695Z,17.47
2022-08-25T02:26:08.675Z,17.44
2022-08-25T02:27:08.654Z,17.44
2022-08-25T02:28:08.639Z,17.40
2022-08-25T02:29:08.625Z,17.36
2022-08-25T02:30:08.602Z,17.30
2022-08-25T02:31:08.610Z,17.28
2022-08-25T02:32:08.567Z,17.17
2022-08-25T02:33:08.547Z,17.17
2022-08-25T02:34:08.531Z,17.11
2022-08-25T02:35:08.511Z,17.04
2022-08-25T02:36:08.492Z,17.04
2022-08-25T02:37:08.471Z,17.00
2022-08-25T02:38:08.459Z,16.98
2022-08-25T02:39:08.445Z,16.93
2022-08-25T02:40:08.463Z,16.85
2022-08-25T02:41:08.396Z,16.77
2022-08-25T02:42:08.394Z,16.78
2022-08-25T02:43:08.358Z,16.73
2022-08-25T02:44:08.339Z,16.71
2022-08-25T02:45:08.341Z,16.63
2022-08-25T02:46:08.333Z,16.63
2022-08-25T02:47:08.283Z,16.59
2022-08-25T02:48:08.264Z,16.60
2022-08-25T02:49:08.252Z,16.50
2022-08-25T02:50:08.231Z,16.44
2022-08-25T02:51:08.203Z,16.50
2022-08-25T02:52:08.190Z,16.44
2022-08-25T02:53:08.166Z,16.44
2022-08-25T02:54:08.154Z,16.38
2022-08-25T02:55:08.132Z,16.33
2022-08-25T02:56:08.110Z,16.37
2022-08-25T02:57:08.096Z,16.31
2022-08-25T02:58:08.076Z,16.31
2022-08-25T02:59:08.051Z,16.33
2022-08-25T03:00:08.028Z,16.34
2022-08-25T03:01:08.088Z,16.26
2022-08-25T03:02:07.998Z,16.23
2022-08-25T03:03:07.974Z,16.26
2022-08-25T03:04:07.952Z,16.26
2022-08-25T03:05:08.021Z,16.23
2022-08-25T03:06:07.918Z,16.25
2022-08-25T03:07:07.915Z,16.14
2022-08-25T03:08:07.873Z,16.22
2022-08-25T03:09:07.865Z,16.11
2022-08-25T03:10:07.883Z,16.22
2022-08-25T03:11:07.835Z,16.09
2022-08-25T03:12:07.869Z,16.06
2022-08-25T03:13:07.781Z,16.22
2022-08-25T03:14:07.797Z,16.09
2022-08-25T03:15:12.854Z,16.07
2022-08-25T03:16:10.879Z,16.04
2022-08-25T03:17:08.672Z,16.06
2022-08-25T03:18:08.666Z,16.01
2022-08-25T03:19:07.660Z,16.04
2022-08-25T03:20:07.648Z,16.03
2022-08-25T03:21:07.619Z,16.00
2022-08-25T03:22:07.706Z,15.86
2022-08-25T03:23:07.591Z,15.92
2022-08-25T03:24:07.572Z,15.92
2022-08-25T03:25:07.545Z,15.86
2022-08-25T03:26:07.534Z,15.86
2022-08-25T03:27:07.510Z,15.89
2022-08-25T03:28:07.480Z,15.88
2022-08-25T03:29:07.463Z,15.93
2022-08-25T03:30:07.445Z,15.86
2022-08-25T03:31:07.426Z,15.79
2022-08-25T03:32:07.531Z,15.85
2022-08-25T03:33:07.388Z,15.74
2022-08-25T03:34:07.359Z,15.78
2022-08-25T03:35:07.344Z,15.68
2022-08-25T03:36:07.321Z,15.70
2022-08-25T03:37:07.311Z,15.68
2022-08-25T03:38:07.337Z,15.67
2022-08-25T03:39:07.263Z,15.68
2022-08-25T03:40:07.269Z,15.66
2022-08-25T03:41:07.223Z,15.66
2022-08-25T03:42:07.203Z,15.74
2022-08-25T03:43:07.201Z,15.63
2022-08-25T03:44:07.160Z,15.61
2022-08-25T03:45:07.142Z,15.60
2022-08-25T03:46:07.151Z,15.66
2022-08-25T03:47:07.111Z,15.52
2022-08-25T03:48:07.088Z,15.51
2022-08-25T03:49:07.061Z,15.60
2022-08-25T03:50:07.090Z,15.56
2022-08-25T03:51:07.027Z,15.52
2022-08-25T03:52:07.005Z,15.46
2022-08-25T03:53:06.985Z,15.42
2022-08-25T03:54:06.973Z,15.42
2022-08-25T03:55:06.953Z,15.39
2022-08-25T03:56:06.924Z,15.36
2022-08-25T03:57:06.906Z,15.33
2022-08-25T03:58:06.971Z,15.42
2022-08-25T03:59:06.864Z,15.36
2022-08-25T04:00:06.855Z,15.35
2022-08-25T04:01:06.852Z,15.35
2022-08-25T04:02:06.837Z,15.35
2022-08-25T04:03:06.781Z,15.41
2022-08-25T04:04:06.758Z,15.45
2022-08-25T04:05:06.743Z,15.33
2022-08-25T04:06:06.725Z,15.38
2022-08-25T04:07:06.892Z,15.42
2022-08-25T04:08:06.975Z,15.45
2022-08-25T04:09:06.663Z,15.39
2022-08-25T04:10:06.647Z,15.36
2022-08-25T04:11:06.627Z,15.33
2022-08-25T04:12:06.601Z,15.35
2022-08-25T04:13:06.582Z,15.26
2022-08-25T04:14:06.565Z,15.30
2022-08-25T04:15:06.540Z,15.28
2022-08-25T04:16:06.580Z,15.31
2022-08-25T04:17:06.510Z,15.39
2022-08-25T04:18:06.686Z,15.30
2022-08-25T04:19:06.458Z,15.36
2022-08-25T04:20:06.463Z,15.38
2022-08-25T04:21:06.422Z,15.38
2022-08-25T04:22:06.395Z,15.36
2022-08-25T04:23:06.397Z,15.43
2022-08-25T04:24:06.355Z,15.35
2022-08-25T04:25:06.336Z,15.35
2022-08-25T04:26:06.316Z,15.36
2022-08-25T04:27:06.295Z,15.31
2022-08-25T04:28:06.518Z,15.24
2022-08-25T04:29:06.252Z,15.38
2022-08-25T04:30:06.244Z,15.33
2022-08-25T04:31:06.212Z,15.26
2022-08-25T04:32:06.243Z,15.21
2022-08-25T04:33:06.180Z,15.24
2022-08-25T04:34:13.466Z,15.21
2022-08-25T04:35:06.132Z,15.30
2022-08-25T04:36:11.410Z,15.17
2022-08-25T04:37:06.090Z,15.08
2022-08-25T04:38:06.196Z,15.17
2022-08-25T04:39:06.049Z,15.08
2022-08-25T04:40:06.081Z,15.13
2022-08-25T04:41:06.008Z,15.06
2022-08-25T04:42:05.991Z,15.19
2022-08-25T04:43:05.967Z,15.20
2022-08-25T04:44:05.946Z,15.15
2022-08-25T04:45:05.938Z,15.26
2022-08-25T04:46:05.955Z,15.23
2022-08-25T04:47:05.911Z,15.13
2022-08-25T04:48:06.055Z,15.09
2022-08-25T04:49:05.843Z,15.09
2022-08-25T04:50:05.827Z,15.06
2022-08-25T04:51:05.805Z,15.15
2022-08-25T04:52:05.784Z,15.06
2022-08-25T04:53:05.763Z,15.17
2022-08-25T04:54:05.745Z,15.20
2022-08-25T04:55:05.729Z,15.23
2022-08-25T04:56:05.699Z,15.24
2022-08-25T04:57:05.692Z,15.17
2022-08-25T04:58:05.842Z,15.19
2022-08-25T04:59:05.644Z,15.15
2022-08-25T05:00:05.620Z,15.23
2022-08-25T05:01:05.648Z,15.24
2022-08-25T05:02:05.588Z,15.26
2022-08-25T05:03:05.564Z,15.21
2022-08-25T05:04:05.640Z,15.21
2022-08-25T05:05:05.578Z,15.23
2022-08-25T05:06:05.502Z,15.28
2022-08-25T05:07:05.484Z,15.15
2022-08-25T05:08:05.612Z,15.19
2022-08-25T05:09:05.453Z,15.21
2022-08-25T05:10:05.416Z,15.31
2022-08-25T05:11:05.410Z,15.27
2022-08-25T05:12:05.407Z,15.27
2022-08-25T05:13:05.352Z,15.24
2022-08-25T05:14:05.358Z,15.31
2022-08-25T05:15:05.322Z,15.30
2022-08-25T05:16:05.349Z,15.30
2022-08-25T05:17:05.271Z,15.28
2022-08-25T05:18:05.286Z,15.28
2022-08-25T05:19:05.229Z,15.31
2022-08-25T05:20:05.250Z,15.39
2022-08-25T05:21:05.243Z,15.39
2022-08-25T05:22:05.186Z,15.39
2022-08-25T05:23:05.179Z,15.33
2022-08-25T05:24:05.184Z,15.33
2022-08-25T05:25:05.126Z,15.41
2022-08-25T05:26:05.101Z,15.42
2022-08-25T05:27:05.083Z,15.48
2022-08-25T05:28:05.198Z,15.43
2022-08-25T05:29:05.039Z,15.42
2022-08-25T05:30:05.012Z,15.41
2022-08-25T05:31:05.010Z,15.49
2022-08-25T05:32:05.005Z,15.59
2022-08-25T05:33:04.958Z,15.49
2022-08-25T05:34:04.943Z,15.64
2022-08-25T05:35:04.919Z,15.74
2022-08-25T05:36:04.891Z,15.79
2022-08-25T05:37:06.607Z,15.78
2022-08-25T05:38:05.064Z,15.79
2022-08-25T05:39:04.840Z,15.82
2022-08-25T05:40:04.840Z,15.89
2022-08-25T05:41:04.787Z,15.99
2022-08-25T05:42:04.768Z,15.92
2022-08-25T05:43:04.755Z,15.99
2022-08-25T05:44:04.737Z,16.00
2022-08-25T05:45:04.707Z,16.09
2022-08-25T05:46:04.763Z,16.09
2022-08-25T05:47:04.664Z,16.09
2022-08-25T05:48:04.759Z,16.14
2022-08-25T05:49:04.626Z,16.16
2022-08-25T05:50:04.620Z,16.22
2022-08-25T05:51:04.613Z,16.22
2022-08-25T05:52:04.570Z,16.34
2022-08-25T05:53:04.552Z,16.35
2022-08-25T05:54:04.532Z,16.49
2022-08-25T05:55:04.508Z,16.35
2022-08-25T05:56:04.495Z,16.42
2022-08-25T05:57:04.476Z,16.50
2022-08-25T05:58:04.579Z,16.60
2022-08-25T05:59:09.157Z,16.63
2022-08-25T06:00:04.417Z,16.67
2022-08-25T06:01:04.467Z,16.81
2022-08-25T06:02:04.372Z,16.92
2022-08-25T06:03:04.354Z,16.85
2022-08-25T06:04:04.414Z,17.03
2022-08-25T06:05:04.310Z,17.15
2022-08-25T06:06:04.300Z,17.17
2022-08-25T06:07:04.277Z,17.17
2022-08-25T06:08:04.507Z,17.32
2022-08-25T06:09:04.234Z,17.43
2022-08-25T06:10:04.226Z,17.47
2022-08-25T06:11:04.193Z,17.62
2022-08-25T06:12:04.184Z,17.53
2022-08-25T06:13:04.155Z,17.69
2022-08-25T06:14:04.154Z,17.78
2022-08-25T06:15:04.128Z,17.91
2022-08-25T06:16:04.175Z,17.92
2022-08-25T06:17:04.087Z,18.17
2022-08-25T06:18:04.154Z,18.31
2022-08-25T06:19:04.046Z,18.43
2022-08-25T06:20:04.027Z,18.55
2022-08-25T06:21:04.014Z,18.68
2022-08-25T06:22:04.002Z,18.97
2022-08-25T06:23:03.981Z,19.05
2022-08-25T06:24:03.955Z,19.24
2022-08-25T06:25:03.940Z,19.39
2022-08-25T06:26:03.935Z,19.54
2022-08-25T06:27:03.940Z,19.72
2022-08-25T06:28:03.920Z,19.84
2022-08-25T06:29:03.863Z,20.02
2022-08-25T06:30:07.652Z,20.24
2022-08-25T06:31:03.852Z,20.41
2022-08-25T06:32:03.812Z,20.59
2022-08-25T06:33:03.795Z,20.80
2022-08-25T06:34:03.775Z,20.98
2022-08-25T06:35:03.765Z,21.11
2022-08-25T06:36:03.742Z,21.26
2022-08-25T06:37:03.733Z,21.27
2022-08-25T06:38:03.765Z,21.51
2022-08-25T06:39:03.704Z,21.61
2022-08-25T06:40:03.752Z,21.88
2022-08-25T06:41:03.654Z,22.01
2022-08-25T06:42:03.640Z,22.12
2022-08-25T06:43:03.650Z,22.31
2022-08-25T06:44:04.871Z,22.34
2022-08-25T06:45:03.594Z,22.50
2022-08-25T06:46:03.572Z,22.56
2022-08-25T06:47:03.614Z,22.59
2022-08-25T06:48:03.543Z,22.69
2022-08-25T06:49:03.525Z,22.71
2022-08-25T06:50:03.511Z,22.75
2022-08-25T06:51:03.495Z,22.80
2022-08-25T06:52:03.481Z,22.84
2022-08-25T06:53:03.495Z,22.89
2022-08-25T06:54:03.444Z,22.99
2022-08-25T06:55:03.434Z,23.01
2022-08-25T06:56:06.455Z,22.97
2022-08-25T06:57:03.398Z,22.99
2022-08-25T06:58:03.411Z,22.90
2022-08-25T06:59:03.363Z,23.01
2022-08-25T07:00:03.349Z,23.05
2022-08-25T07:01:03.423Z,23.05
2022-08-25T07:02:03.711Z,23.05
2022-08-25T07:03:03.300Z,23.05
2022-08-25T07:04:03.743Z,23.08
2022-08-25T07:05:03.270Z,23.11
2022-08-25T07:06:03.257Z,23.14
2022-08-25T07:07:03.265Z,23.22
2022-08-25T07:08:03.282Z,23.32
2022-08-25T07:09:03.207Z,23.39
2022-08-25T07:10:03.211Z,23.43
2022-08-25T07:11:03.179Z,23.38
2022-08-25T07:12:03.182Z,23.45
2022-08-25T07:13:03.150Z,23.38
2022-08-25T07:14:03.134Z,23.57
2022-08-25T07:15:19.391Z,23.67
2022-08-25T07:16:03.156Z,23.82
2022-08-25T07:17:03.087Z,23.94
2022-08-25T07:18:03.145Z,23.98
2022-08-25T07:19:03.077Z,24.12
2022-08-25T07:20:03.068Z,24.19
2022-08-25T07:21:03.038Z,24.24
2022-08-25T07:22:03.021Z,24.35
2022-08-25T07:23:02.999Z,24.52
2022-08-25T07:24:03.060Z,24.53
2022-08-25T07:25:02.980Z,24.54
2022-08-25T07:26:15.589Z,24.67
2022-08-25T07:27:02.989Z,24.69
2022-08-25T07:28:02.958Z,24.67
2022-08-25T07:29:03.101Z,24.87
2022-08-25T07:30:02.907Z,25.06
2022-08-25T07:31:02.930Z,25.07
2022-08-25T07:32:02.890Z,25.32
2022-08-25T07:33:06.790Z,25.49
2022-08-25T07:34:02.857Z,25.62
2022-08-25T07:35:02.888Z,25.71
2022-08-25T07:36:02.832Z,25.72
2022-08-25T07:37:02.816Z,25.86
2022-08-25T07:38:02.813Z,25.90
2022-08-25T07:39:02.792Z,26.08
2022-08-25T07:40:02.850Z,26.27
2022-08-25T07:41:02.777Z,26.52
2022-08-25T07:42:02.758Z,26.39
2022-08-25T07:43:02.813Z,26.52
2022-08-25T07:44:02.731Z,26.46
2022-08-25T07:45:02.744Z,26.76
2022-08-25T07:46:02.711Z,26.96
2022-08-25T07:47:02.697Z,26.99
2022-08-25T07:48:02.682Z,27.02
2022-08-25T07:49:02.670Z,27.17
2022-08-25T07:50:02.659Z,27.28
2022-08-25T07:51:05.552Z,27.46
2022-08-25T07:52:05.483Z,27.48
2022-08-25T07:53:02.639Z,27.64
2022-08-25T07:54:02.615Z,27.91
2022-08-25T07:55:02.606Z,27.91
2022-08-25T07:57:02.576Z,28.26
2022-08-25T07:58:02.713Z,28.06
2022-08-25T07:59:02.567Z,27.95
2022-08-25T08:00:02.540Z,27.70
2022-08-25T08:01:02.532Z,27.85
2022-08-25T08:02:02.631Z,27.96
2022-08-25T08:03:03.825Z,27.94
2022-08-25T08:04:03.673Z,28.28
2022-08-25T08:05:02.483Z,28.36
2022-08-25T08:06:02.474Z,28.29
2022-08-25T08:07:02.457Z,28.33
2022-08-25T08:08:02.503Z,28.56
2022-08-25T08:09:02.438Z,28.65
2022-08-25T08:10:29.736Z,28.90
2022-08-25T08:11:04.606Z,29.10
2022-08-25T08:12:02.406Z,29.38
2022-08-25T08:13:02.520Z,29.40
2022-08-25T08:14:02.379Z,29.65
2022-08-25T08:15:02.371Z,29.57
2022-08-25T08:16:02.430Z,29.70
2022-08-25T08:17:02.359Z,29.79
2022-08-25T08:18:03.158Z,29.89
2022-08-25T08:19:02.358Z,30.26
2022-08-25T08:20:02.317Z,30.52
2022-08-25T08:21:02.310Z,30.43
2022-08-25T08:22:02.528Z,30.69
2022-08-25T08:23:02.317Z,30.83
2022-08-25T08:24:05.060Z,30.84
2022-08-25T08:25:02.265Z,31.23
2022-08-25T08:26:02.254Z,31.18
2022-08-25T08:27:02.245Z,31.11
2022-08-25T08:28:02.274Z,30.78
2022-08-25T08:29:02.236Z,30.67
2022-08-25T08:30:02.219Z,30.53
2022-08-25T08:31:02.250Z,30.00
2022-08-25T08:32:02.198Z,30.18
2022-08-25T08:33:11.251Z,30.26
2022-08-25T08:34:02.194Z,30.71
2022-08-25T08:35:02.177Z,30.75
2022-08-25T08:36:05.173Z,30.91
2022-08-25T08:37:02.172Z,31.05
2022-08-25T08:38:02.141Z,30.93
2022-08-25T08:39:02.131Z,30.91
2022-08-25T08:40:03.363Z,31.24
2022-08-25T08:41:02.109Z,31.58
2022-08-25T08:42:12.598Z,31.85
2022-08-25T08:43:02.155Z,31.99
2022-08-25T08:44:02.177Z,32.00
2022-08-25T08:45:02.774Z,32.37
2022-08-25T08:46:02.122Z,32.39
2022-08-25T08:47:02.054Z,32.39
2022-08-25T08:48:02.141Z,32.42
2022-08-25T08:49:02.060Z,32.39
2022-08-25T08:50:02.048Z,32.51
2022-08-25T08:51:02.028Z,32.03
2022-08-25T08:52:02.011Z,31.92
2022-08-25T08:53:02.002Z,31.95
2022-08-25T08:54:01.993Z,31.75
2022-08-25T08:55:01.997Z,31.62
2022-08-25T08:56:01.977Z,31.92
2022-08-25T08:57:01.959Z,32.32
2022-08-25T08:58:01.966Z,31.91
2022-08-25T08:59:06.242Z,31.48
2022-08-25T09:00:01.941Z,31.46
2022-08-25T09:01:01.926Z,31.49
2022-08-25T09:02:02.054Z,31.50
2022-08-25T09:03:01.979Z,31.40
2022-08-25T09:04:01.903Z,31.50
2022-08-25T09:05:01.894Z,31.98
2022-08-25T09:06:01.883Z,31.87
2022-08-25T09:07:01.882Z,31.96
2022-08-25T09:08:01.860Z,31.88
2022-08-25T09:09:01.873Z,31.77
2022-08-25T09:10:01.847Z,31.82
2022-08-25T09:11:01.855Z,31.72
2022-08-25T09:12:01.854Z,31.54
2022-08-25T09:13:01.825Z,31.85
2022-08-25T09:14:01.834Z,32.35
2022-08-25T09:15:01.799Z,32.39
2022-08-25T09:16:01.830Z,32.76
2022-08-25T09:17:01.780Z,32.73
2022-08-25T09:18:01.770Z,32.66
2022-08-25T09:19:01.773Z,32.30
2022-08-25T09:20:01.761Z,31.58
2022-08-25T09:21:01.765Z,31.17
2022-08-25T09:22:01.749Z,31.12
2022-08-25T09:23:01.755Z,31.17
2022-08-25T09:24:01.735Z,31.55
2022-08-25T09:25:03.425Z,32.02
2022-08-25T09:26:01.695Z,32.15
2022-08-25T09:27:01.691Z,32.03
2022-08-25T09:28:01.714Z,31.42
2022-08-25T09:29:01.671Z,31.79
2022-08-25T09:30:01.661Z,32.10
2022-08-25T09:31:01.739Z,32.02
2022-08-25T09:32:01.644Z,32.22
2022-08-25T09:33:01.642Z,32.52
2022-08-25T09:34:01.624Z,32.49
2022-08-25T09:35:01.638Z,32.58
2022-08-25T09:36:01.604Z,32.73
2022-08-25T09:37:01.599Z,32.84
2022-08-25T09:38:01.593Z,32.84
2022-08-25T09:39:01.589Z,33.30
2022-08-25T09:40:01.649Z,33.53
2022-08-25T09:41:01.561Z,33.79
2022-08-25T09:42:01.553Z,33.60
2022-08-25T09:43:01.574Z,33.63
2022-08-25T09:44:01.541Z,33.79
2022-08-25T09:45:01.534Z,33.61
2022-08-25T09:46:01.575Z,33.31
2022-08-25T09:47:01.507Z,33.26
2022-08-25T09:48:01.500Z,32.54
2022-08-25T09:49:01.507Z,32.33
2022-08-25T09:50:01.484Z,32.52
2022-08-25T09:51:01.473Z,32.64
2022-08-25T09:52:01.467Z,33.04
2022-08-25T09:53:01.471Z,32.80
2022-08-25T09:54:01.445Z,33.07
2022-08-25T09:55:01.456Z,32.61
2022-08-25T09:56:01.447Z,32.79
2022-08-25T09:57:01.423Z,33.27
2022-08-25T09:58:01.414Z,33.31
2022-08-25T09:59:03.229Z,32.91
2022-08-25T10:00:01.397Z,33.03
2022-08-25T10:01:01.539Z,32.49
2022-08-25T10:02:01.469Z,32.33
2022-08-25T10:03:05.964Z,32.47
2022-08-25T10:04:01.434Z,32.70
2022-08-25T10:05:01.400Z,32.61
2022-08-25T10:06:01.355Z,32.70
2022-08-25T10:07:01.341Z,32.86
2022-08-25T10:08:01.335Z,33.17
2022-08-25T10:09:01.342Z,32.96
2022-08-25T10:10:01.328Z,33.13
2022-08-25T10:11:01.315Z,32.76
2022-08-25T10:12:01.319Z,32.43
2022-08-25T10:13:01.468Z,32.49
2022-08-25T10:14:01.293Z,32.58
2022-08-25T10:15:01.279Z,32.80
2022-08-25T10:16:01.285Z,32.76
2022-08-25T10:17:01.264Z,32.79
2022-08-25T10:18:01.251Z,32.80
2022-08-25T10:19:01.250Z,32.91
2022-08-25T10:20:01.235Z,32.74
2022-08-25T10:21:01.233Z,32.59
2022-08-25T10:22:01.229Z,32.79
2022-08-25T10:23:01.339Z,32.73
2022-08-25T10:24:01.208Z,32.54
2022-08-25T10:25:01.197Z,32.77
2022-08-25T10:26:03.645Z,32.79
2022-08-25T10:27:01.196Z,33.03
2022-08-25T10:28:01.176Z,33.36
2022-08-25T10:29:01.173Z,33.31
2022-08-25T10:30:01.161Z,33.15
2022-08-25T10:31:01.192Z,33.46
2022-08-25T10:32:01.150Z,33.73
2022-08-25T10:33:01.183Z,33.83
2022-08-25T10:34:01.143Z,33.85
2022-08-25T10:35:01.130Z,34.39
2022-08-25T10:36:01.122Z,34.42
2022-08-25T10:37:01.115Z,34.08
2022-08-25T10:38:01.113Z,33.97
2022-08-25T10:39:01.751Z,34.19
2022-08-25T10:40:01.193Z,34.05
2022-08-25T10:41:01.092Z,34.00
2022-08-25T10:42:01.102Z,33.57
2022-08-25T10:43:01.204Z,33.52
2022-08-25T10:44:01.082Z,33.74
2022-08-25T10:45:01.090Z,33.60
2022-08-25T10:46:01.096Z,33.43
2022-08-25T10:47:01.069Z,33.22
2022-08-25T10:48:01.060Z,33.19
2022-08-25T10:49:01.049Z,33.39
2022-08-25T10:50:01.050Z,33.67
2022-08-25T10:51:01.063Z,33.83
2022-08-25T10:52:01.038Z,33.37
2022-08-25T10:53:01.093Z,33.03
2022-08-25T10:54:01.025Z,33.20
2022-08-25T10:55:01.026Z,33.55
2022-08-25T10:56:01.028Z,33.89
2022-08-25T10:57:01.760Z,33.76
2022-08-25T10:58:01.024Z,33.83
2022-08-25T10:59:01.011Z,33.82
2022-08-25T11:00:01.007Z,33.78
2022-08-25T11:01:01.009Z,33.97
2022-08-25T11:02:01.012Z,33.53
2022-08-25T11:03:01.083Z,33.80
2022-08-25T11:04:00.977Z,33.92
2022-08-25T11:05:01.033Z,33.95
2022-08-25T11:06:00.970Z,33.80
2022-08-25T11:07:00.965Z,34.11
2022-08-25T11:08:00.965Z,34.09
2022-08-25T11:09:00.960Z,33.79
2022-08-25T11:10:00.970Z,33.34
2022-08-25T11:11:00.951Z,33.03
2022-08-25T11:12:00.966Z,32.91
2022-08-25T11:13:00.974Z,32.98
2022-08-25T11:14:02.156Z,32.85
2022-08-25T11:15:01.028Z,32.13
2022-08-25T11:16:16.479Z,31.87
2022-08-25T11:17:00.974Z,32.00
2022-08-25T11:18:00.931Z,32.43
2022-08-25T11:19:00.930Z,32.67
2022-08-25T11:20:00.936Z,32.80
2022-08-25T11:21:00.940Z,32.71
2022-08-25T11:22:00.911Z,32.74
2022-08-25T11:23:00.910Z,32.59
2022-08-25T11:24:00.924Z,32.84
2022-08-25T11:25:00.905Z,32.80
2022-08-25T11:26:00.900Z,33.15
2022-08-25T11:27:00.896Z,33.61
2022-08-25T11:28:00.978Z,33.82
2022-08-25T11:29:00.891Z,33.94
2022-08-25T11:30:00.887Z,33.78
2022-08-25T11:31:00.910Z,33.58
2022-08-25T11:32:00.875Z,33.79
2022-08-25T11:33:00.881Z,33.87
2022-08-25T11:34:00.870Z,33.83
2022-08-25T11:35:00.869Z,33.39
2022-08-25T11:36:00.873Z,33.26
2022-08-25T11:37:00.865Z,33.36
2022-08-25T11:38:00.871Z,33.43
2022-08-25T11:39:00.868Z,33.52
2022-08-25T11:40:00.913Z,33.80
2022-08-25T11:41:00.864Z,34.27
2022-08-25T11:42:00.861Z,34.73
2022-08-25T11:43:00.860Z,34.95
2022-08-25T11:44:00.890Z,34.57
2022-08-25T11:45:00.855Z,33.95
2022-08-25T11:46:00.874Z,32.95
2022-08-25T11:47:00.849Z,32.32
2022-08-25T11:48:00.859Z,32.14
2022-08-25T11:49:00.847Z,32.49
2022-08-25T11:50:00.840Z,32.98
2022-08-25T11:51:00.835Z,33.15
2022-08-25T11:52:03.045Z,33.26
2022-08-25T11:53:00.833Z,33.33
2022-08-25T11:54:00.835Z,33.52
2022-08-25T11:55:00.830Z,33.73
2022-08-25T11:56:00.825Z,33.86
2022-08-25T11:57:00.822Z,34.23
2022-08-25T11:58:00.825Z,34.01
2022-08-25T11:59:00.817Z,33.85
2022-08-25T12:00:00.819Z,33.41
2022-08-25T12:01:00.838Z,32.91
2022-08-25T12:02:00.809Z,32.21
2022-08-25T12:03:01.757Z,32.00
2022-08-25T12:04:00.879Z,31.95
2022-08-25T12:05:00.963Z,32.20
2022-08-25T12:06:00.811Z,32.84
2022-08-25T12:07:00.797Z,32.96
2022-08-25T12:08:00.795Z,33.27
2022-08-25T12:09:00.790Z,33.07
2022-08-25T12:10:00.790Z,32.79
2022-08-25T12:11:00.786Z,32.59
2022-08-25T12:12:00.816Z,32.44
2022-08-25T12:13:00.781Z,32.00
2022-08-25T12:14:00.778Z,31.72
2022-08-25T12:15:00.785Z,31.48
2022-08-25T12:16:00.776Z,31.36
2022-08-25T12:17:00.817Z,31.30
2022-08-25T12:18:03.319Z,31.21
2022-08-25T12:19:00.756Z,31.18
2022-08-25T12:20:00.746Z,31.18
2022-08-25T12:21:00.749Z,31.02
2022-08-25T12:22:00.736Z,30.90
2022-08-25T12:23:00.729Z,30.62
2022-08-25T12:24:00.742Z,30.57
2022-08-25T12:25:00.721Z,30.38
2022-08-25T12:26:00.713Z,30.34
2022-08-25T12:27:00.705Z,30.34
2022-08-25T12:28:00.797Z,30.23
2022-08-25T12:29:00.692Z,30.33
2022-08-25T12:30:00.689Z,30.83
2022-08-25T12:31:00.708Z,31.40
2022-08-25T12:32:04.615Z,32.00
2022-08-25T12:33:00.664Z,32.58
2022-08-25T12:34:00.678Z,33.11
2022-08-25T12:35:00.647Z,33.22
2022-08-25T12:36:00.645Z,33.07
2022-08-25T12:37:00.643Z,32.91
2022-08-25T12:38:00.695Z,32.59
2022-08-25T12:39:00.628Z,32.59
2022-08-25T12:40:00.662Z,32.52
2022-08-25T12:41:00.640Z,32.71
2022-08-25T12:43:00.664Z,33.42
2022-08-25T12:44:00.608Z,33.43
2022-08-25T12:45:00.597Z,33.65
2022-08-25T12:46:00.624Z,33.97
2022-08-25T12:47:00.605Z,33.49
2022-08-25T12:48:00.584Z,32.98
2022-08-25T12:49:00.581Z,32.24
2022-08-25T12:50:00.583Z,31.85
2022-08-25T12:51:00.573Z,31.58
2022-08-25T12:52:00.569Z,31.38
2022-08-25T12:53:00.599Z,31.15
2022-08-25T12:54:00.561Z,31.26